Oakdale, California
Current Conditions -  °F | °C
As of 2:53 PM on Wednesday 26 Nov 2014 (Local Time) from KMOD Reporting Station
Haze Haze  
Wind Chill: 68°   Ceiling: Unl
Heat Index: 68°   Visibility: 6mi
Dew Point: 45°   Wind: 3mph
Humidity: 43%   Direction: NA
Pressure: 30.23"   Gusts: NA
Location:  37.77°N, 120.84°W
Report Text: KMOD 262253Z AUTO VRB03KT 6SM HZ CLR 20/07 A3023 RMK AO2 SLP236 T02000072
Loading
Personal Weather Stations






























Interactive Weather Map New forecast layout! Learn more

10-Day Weather Forecast

Advertisements
Track Severe Weather on mobile